sensor_id;sensor_type;location;lat;lon;timestamp;P1;durP1;ratioP1;P2;durP2;ratioP2
54919;SDS011;63804;53.120;8.764;2022-10-31T00:01:24;40.83;;;22.33;;
54919;SDS011;63804;53.120;8.764;2022-10-31T00:03:52;43.88;;;21.15;;
54919;SDS011;63804;53.120;8.764;2022-10-31T00:06:18;39.15;;;21.10;;
54919;SDS011;63804;53.120;8.764;2022-10-31T00:08:53;41.83;;;22.13;;
54919;SDS011;63804;53.120;8.764;2022-10-31T00:11:24;36.63;;;21.73;;
54919;SDS011;63804;53.120;8.764;2022-10-31T00:13:50;36.92;;;21.30;;
54919;SDS011;63804;53.120;8.764;2022-10-31T00:16:16;37.58;;;21.15;;
54919;SDS011;63804;53.120;8.764;2022-10-31T00:18:43;36.92;;;21.33;;
54919;SDS011;63804;53.120;8.764;2022-10-31T00:21:14;39.80;;;20.60;;
54919;SDS011;63804;53.120;8.764;2022-10-31T00:23:39;38.33;;;22.25;;
54919;SDS011;63804;53.120;8.764;2022-10-31T00:26:05;38.08;;;22.13;;
54919;SDS011;63804;53.120;8.764;2022-10-31T00:28:32;39.60;;;19.67;;
54919;SDS011;63804;53.120;8.764;2022-10-31T00:30:59;39.28;;;21.77;;
54919;SDS011;63804;53.120;8.764;2022-10-31T00:33:28;40.38;;;20.63;;
54919;SDS011;63804;53.120;8.764;2022-10-31T00:35:54;36.33;;;21.23;;
54919;SDS011;63804;53.120;8.764;2022-10-31T00:38:20;38.65;;;21.13;;
54919;SDS011;63804;53.120;8.764;2022-10-31T00:40:46;38.92;;;20.08;;
54919;SDS011;63804;53.120;8.764;2022-10-31T00:43:12;39.17;;;22.17;;
54919;SDS011;63804;53.120;8.764;2022-10-31T00:45:37;34.70;;;20.10;;
54919;SDS011;63804;53.120;8.764;2022-10-31T00:48:03;39.58;;;20.83;;
54919;SDS011;63804;53.120;8.764;2022-10-31T00:50:29;33.53;;;20.48;;
54919;SDS011;63804;53.120;8.764;2022-10-31T00:52:55;33.08;;;19.80;;
54919;SDS011;63804;53.120;8.764;2022-10-31T00:55:22;43.45;;;20.70;;
54919;SDS011;63804;53.120;8.764;2022-10-31T00:57:47;39.58;;;20.58;;
54919;SDS011;63804;53.120;8.764;2022-10-31T01:00:13;33.47;;;19.98;;
54919;SDS011;63804;53.120;8.764;2022-10-31T01:02:39;37.60;;;20.05;;
54919;SDS011;63804;53.120;8.764;2022-10-31T01:05:05;33.95;;;19.00;;
54919;SDS011;63804;53.120;8.764;2022-10-31T01:07:31;35.70;;;19.60;;
54919;SDS011;63804;53.120;8.764;2022-10-31T01:09:56;37.05;;;21.02;;
54919;SDS011;63804;53.120;8.764;2022-10-31T01:12:22;40.53;;;22.17;;
54919;SDS011;63804;53.120;8.764;2022-10-31T01:14:47;36.22;;;21.25;;
54919;SDS011;63804;53.120;8.764;2022-10-31T01:17:13;41.30;;;22.13;;
54919;SDS011;63804;53.120;8.764;2022-10-31T01:19:39;38.00;;;21.08;;
54919;SDS011;63804;53.120;8.764;2022-10-31T01:22:05;37.05;;;21.05;;
54919;SDS011;63804;53.120;8.764;2022-10-31T01:24:31;38.90;;;21.02;;
54919;SDS011;63804;53.120;8.764;2022-10-31T01:26:57;37.65;;;19.98;;
54919;SDS011;63804;53.120;8.764;2022-10-31T01:29:23;40.92;;;20.52;;
54919;SDS011;63804;53.120;8.764;2022-10-31T01:31:48;33.58;;;20.10;;
54919;SDS011;63804;53.120;8.764;2022-10-31T01:34:16;35.75;;;19.75;;
54919;SDS011;63804;53.120;8.764;2022-10-31T01:36:42;34.25;;;20.52;;
54919;SDS011;63804;53.120;8.764;2022-10-31T01:39:11;40.40;;;20.65;;
54919;SDS011;63804;53.120;8.764;2022-10-31T01:41:39;34.80;;;19.33;;
54919;SDS011;63804;53.120;8.764;2022-10-31T01:49:34;41.67;;;22.48;;
54919;SDS011;63804;53.120;8.764;2022-10-31T01:54:30;34.05;;;20.25;;
54919;SDS011;63804;53.120;8.764;2022-10-31T01:57:00;38.28;;;21.05;;
54919;SDS011;63804;53.120;8.764;2022-10-31T01:59:30;33.95;;;20.30;;
54919;SDS011;63804;53.120;8.764;2022-10-31T02:02:00;35.70;;;19.95;;
54919;SDS011;63804;53.120;8.764;2022-10-31T02:04:26;34.75;;;19.40;;
54919;SDS011;63804;53.120;8.764;2022-10-31T02:06:57;33.50;;;18.08;;
54919;SDS011;63804;53.120;8.764;2022-10-31T02:09:27;36.72;;;18.75;;
54919;SDS011;63804;53.120;8.764;2022-10-31T02:11:56;34.15;;;18.85;;
54919;SDS011;63804;53.120;8.764;2022-10-31T02:14:25;30.77;;;18.15;;
54919;SDS011;63804;53.120;8.764;2022-10-31T02:16:53;35.65;;;20.15;;
54919;SDS011;63804;53.120;8.764;2022-10-31T02:19:24;33.30;;;18.90;;
54919;SDS011;63804;53.120;8.764;2022-10-31T02:22:04;33.90;;;19.73;;
54919;SDS011;63804;53.120;8.764;2022-10-31T02:25:37;36.25;;;20.63;;
54919;SDS011;63804;53.120;8.764;2022-10-31T02:28:10;35.05;;;19.13;;
54919;SDS011;63804;53.120;8.764;2022-10-31T02:33:45;33.33;;;18.85;;
54919;SDS011;63804;53.120;8.764;2022-10-31T02:36:24;35.47;;;20.10;;
54919;SDS011;63804;53.120;8.764;2022-10-31T02:38:58;41.90;;;21.48;;
54919;SDS011;63804;53.120;8.764;2022-10-31T02:41:37;33.35;;;18.95;;
54919;SDS011;63804;53.120;8.764;2022-10-31T02:46:53;34.55;;;19.90;;
54919;SDS011;63804;53.120;8.764;2022-10-31T02:49:29;33.38;;;20.27;;
54919;SDS011;63804;53.120;8.764;2022-10-31T02:52:00;37.65;;;20.52;;
54919;SDS011;63804;53.120;8.764;2022-10-31T02:54:26;37.88;;;19.73;;
54919;SDS011;63804;53.120;8.764;2022-10-31T02:56:54;33.75;;;19.33;;
54919;SDS011;63804;53.120;8.764;2022-10-31T02:59:31;35.88;;;19.95;;
54919;SDS011;63804;53.120;8.764;2022-10-31T03:02:05;32.00;;;18.75;;
54919;SDS011;63804;53.120;8.764;2022-10-31T03:04:37;34.63;;;19.95;;
54919;SDS011;63804;53.120;8.764;2022-10-31T03:12:22;32.03;;;18.88;;
54919;SDS011;63804;53.120;8.764;2022-10-31T03:14:56;35.88;;;20.92;;
54919;SDS011;63804;53.120;8.764;2022-10-31T03:17:50;35.88;;;19.45;;
54919;SDS011;63804;53.120;8.764;2022-10-31T03:20:19;35.67;;;21.00;;
54919;SDS011;63804;53.120;8.764;2022-10-31T03:22:51;38.65;;;21.45;;
54919;SDS011;63804;53.120;8.764;2022-10-31T03:25:20;33.60;;;20.30;;
54919;SDS011;63804;53.120;8.764;2022-10-31T03:27:46;36.03;;;21.83;;
54919;SDS011;63804;53.120;8.764;2022-10-31T03:30:13;37.35;;;19.92;;
54919;SDS011;63804;53.120;8.764;2022-10-31T03:32:43;36.97;;;20.65;;
54919;SDS011;63804;53.120;8.764;2022-10-31T03:35:14;38.00;;;21.83;;
54919;SDS011;63804;53.120;8.764;2022-10-31T03:37:43;38.63;;;22.10;;
54919;SDS011;63804;53.120;8.764;2022-10-31T03:40:11;34.47;;;21.00;;
54919;SDS011;63804;53.120;8.764;2022-10-31T03:42:40;34.55;;;20.27;;
54919;SDS011;63804;53.120;8.764;2022-10-31T03:45:13;34.22;;;21.00;;
54919;SDS011;63804;53.120;8.764;2022-10-31T03:47:43;37.95;;;20.45;;
54919;SDS011;63804;53.120;8.764;2022-10-31T03:50:09;40.88;;;21.67;;
54919;SDS011;63804;53.120;8.764;2022-10-31T03:57:57;38.38;;;20.85;;
54919;SDS011;63804;53.120;8.764;2022-10-31T04:00:27;35.65;;;19.65;;
54919;SDS011;63804;53.120;8.764;2022-10-31T04:02:58;36.90;;;20.13;;
54919;SDS011;63804;53.120;8.764;2022-10-31T04:05:39;38.83;;;21.83;;
54919;SDS011;63804;53.120;8.764;2022-10-31T04:08:27;33.92;;;21.15;;
54919;SDS011;63804;53.120;8.764;2022-10-31T04:10:57;39.78;;;21.88;;
54919;SDS011;63804;53.120;8.764;2022-10-31T04:13:29;36.22;;;21.65;;
54919;SDS011;63804;53.120;8.764;2022-10-31T04:15:57;34.13;;;19.95;;
54919;SDS011;63804;53.120;8.764;2022-10-31T04:18:23;35.35;;;21.73;;
54919;SDS011;63804;53.120;8.764;2022-10-31T04:20:49;37.25;;;20.73;;
54919;SDS011;63804;53.120;8.764;2022-10-31T04:23:25;39.50;;;21.67;;
54919;SDS011;63804;53.120;8.764;2022-10-31T04:25:51;36.25;;;21.83;;
54919;SDS011;63804;53.120;8.764;2022-10-31T04:28:16;49.20;;;23.88;;
54919;SDS011;63804;53.120;8.764;2022-10-31T04:30:46;52.25;;;25.35;;
54919;SDS011;63804;53.120;8.764;2022-10-31T04:33:13;42.42;;;22.83;;
54919;SDS011;63804;53.120;8.764;2022-10-31T04:35:39;48.90;;;24.58;;
54919;SDS011;63804;53.120;8.764;2022-10-31T04:38:07;53.05;;;26.50;;
54919;SDS011;63804;53.120;8.764;2022-10-31T04:40:37;64.90;;;24.90;;
54919;SDS011;63804;53.120;8.764;2022-10-31T04:43:04;51.90;;;24.88;;
54919;SDS011;63804;53.120;8.764;2022-10-31T04:45:30;87.78;;;25.80;;
54919;SDS011;63804;53.120;8.764;2022-10-31T04:48:00;64.32;;;24.35;;
54919;SDS011;63804;53.120;8.764;2022-10-31T04:50:27;45.75;;;23.17;;
54919;SDS011;63804;53.120;8.764;2022-10-31T04:52:53;75.85;;;24.63;;
54919;SDS011;63804;53.120;8.764;2022-10-31T04:55:19;59.45;;;23.85;;
54919;SDS011;63804;53.120;8.764;2022-10-31T04:57:46;44.80;;;22.88;;
54919;SDS011;63804;53.120;8.764;2022-10-31T05:00:14;68.80;;;22.83;;
54919;SDS011;63804;53.120;8.764;2022-10-31T05:02:46;51.63;;;24.67;;
54919;SDS011;63804;53.120;8.764;2022-10-31T05:05:15;58.40;;;23.52;;
54919;SDS011;63804;53.120;8.764;2022-10-31T05:07:43;49.60;;;23.58;;
54919;SDS011;63804;53.120;8.764;2022-10-31T05:10:11;44.92;;;21.25;;
54919;SDS011;63804;53.120;8.764;2022-10-31T05:12:45;52.58;;;22.75;;
54919;SDS011;63804;53.120;8.764;2022-10-31T05:15:21;83.78;;;24.67;;
54919;SDS011;63804;53.120;8.764;2022-10-31T05:17:48;53.92;;;21.85;;
54919;SDS011;63804;53.120;8.764;2022-10-31T05:20:15;50.33;;;22.45;;
54919;SDS011;63804;53.120;8.764;2022-10-31T05:22:49;49.55;;;23.35;;
54919;SDS011;63804;53.120;8.764;2022-10-31T05:27:44;48.65;;;21.02;;
54919;SDS011;63804;53.120;8.764;2022-10-31T05:30:12;40.17;;;21.70;;
54919;SDS011;63804;53.120;8.764;2022-10-31T05:32:45;47.70;;;21.13;;
54919;SDS011;63804;53.120;8.764;2022-10-31T05:35:16;42.55;;;21.70;;
54919;SDS011;63804;53.120;8.764;2022-10-31T05:37:44;52.08;;;20.27;;
54919;SDS011;63804;53.120;8.764;2022-10-31T05:40:11;55.55;;;22.58;;
54919;SDS011;63804;53.120;8.764;2022-10-31T05:42:38;55.95;;;22.10;;
54919;SDS011;63804;53.120;8.764;2022-10-31T05:45:14;38.83;;;21.40;;
54919;SDS011;63804;53.120;8.764;2022-10-31T05:47:42;39.28;;;21.13;;
54919;SDS011;63804;53.120;8.764;2022-10-31T05:50:09;40.60;;;20.05;;
54919;SDS011;63804;53.120;8.764;2022-10-31T05:52:35;44.70;;;22.25;;
54919;SDS011;63804;53.120;8.764;2022-10-31T05:55:01;49.22;;;21.00;;
54919;SDS011;63804;53.120;8.764;2022-10-31T05:57:27;36.88;;;20.98;;
54919;SDS011;63804;53.120;8.764;2022-10-31T05:59:54;35.85;;;20.70;;
54919;SDS011;63804;53.120;8.764;2022-10-31T06:02:19;41.92;;;21.85;;
54919;SDS011;63804;53.120;8.764;2022-10-31T06:04:46;54.35;;;22.70;;
54919;SDS011;63804;53.120;8.764;2022-10-31T06:07:11;40.38;;;23.23;;
54919;SDS011;63804;53.120;8.764;2022-10-31T06:09:37;41.40;;;21.38;;
54919;SDS011;63804;53.120;8.764;2022-10-31T06:12:02;45.08;;;20.88;;
54919;SDS011;63804;53.120;8.764;2022-10-31T06:14:28;35.72;;;19.27;;
54919;SDS011;63804;53.120;8.764;2022-10-31T06:16:54;43.90;;;21.15;;
54919;SDS011;63804;53.120;8.764;2022-10-31T06:19:20;39.28;;;20.83;;
54919;SDS011;63804;53.120;8.764;2022-10-31T06:21:46;33.40;;;18.80;;
54919;SDS011;63804;53.120;8.764;2022-10-31T06:24:13;28.02;;;18.77;;
54919;SDS011;63804;53.120;8.764;2022-10-31T06:26:40;31.10;;;18.75;;
54919;SDS011;63804;53.120;8.764;2022-10-31T06:29:06;30.50;;;17.05;;
54919;SDS011;63804;53.120;8.764;2022-10-31T06:31:32;32.55;;;19.08;;
54919;SDS011;63804;53.120;8.764;2022-10-31T06:33:57;28.38;;;18.02;;
54919;SDS011;63804;53.120;8.764;2022-10-31T06:36:23;31.45;;;19.38;;
54919;SDS011;63804;53.120;8.764;2022-10-31T06:38:52;30.48;;;19.40;;
54919;SDS011;63804;53.120;8.764;2022-10-31T06:41:18;28.00;;;18.17;;
54919;SDS011;63804;53.120;8.764;2022-10-31T06:43:46;28.20;;;17.95;;
54919;SDS011;63804;53.120;8.764;2022-10-31T06:46:12;36.25;;;21.80;;
54919;SDS011;63804;53.120;8.764;2022-10-31T06:48:38;33.95;;;20.30;;
54919;SDS011;63804;53.120;8.764;2022-10-31T06:51:05;42.35;;;18.52;;
54919;SDS011;63804;53.120;8.764;2022-10-31T06:53:30;53.10;;;21.13;;
54919;SDS011;63804;53.120;8.764;2022-10-31T06:55:56;27.63;;;18.40;;
54919;SDS011;63804;53.120;8.764;2022-10-31T06:58:22;27.60;;;18.13;;
54919;SDS011;63804;53.120;8.764;2022-10-31T07:00:47;33.85;;;21.48;;
54919;SDS011;63804;53.120;8.764;2022-10-31T07:03:14;31.05;;;19.63;;
54919;SDS011;63804;53.120;8.764;2022-10-31T07:05:43;33.80;;;19.98;;
54919;SDS011;63804;53.120;8.764;2022-10-31T07:08:10;44.72;;;21.10;;
54919;SDS011;63804;53.120;8.764;2022-10-31T07:10:37;42.92;;;21.25;;
54919;SDS011;63804;53.120;8.764;2022-10-31T07:13:05;81.55;;;23.00;;
54919;SDS011;63804;53.120;8.764;2022-10-31T07:15:39;41.78;;;21.75;;
54919;SDS011;63804;53.120;8.764;2022-10-31T07:18:08;42.33;;;18.98;;
54919;SDS011;63804;53.120;8.764;2022-10-31T07:20:35;57.20;;;19.73;;
54919;SDS011;63804;53.120;8.764;2022-10-31T07:23:05;83.40;;;22.60;;
54919;SDS011;63804;53.120;8.764;2022-10-31T07:25:31;55.03;;;19.17;;
54919;SDS011;63804;53.120;8.764;2022-10-31T07:27:57;27.50;;;15.98;;
54919;SDS011;63804;53.120;8.764;2022-10-31T07:30:22;32.85;;;17.25;;
54919;SDS011;63804;53.120;8.764;2022-10-31T07:32:48;47.17;;;17.80;;
54919;SDS011;63804;53.120;8.764;2022-10-31T07:35:25;46.95;;;17.83;;
54919;SDS011;63804;53.120;8.764;2022-10-31T07:37:52;56.53;;;17.70;;
54919;SDS011;63804;53.120;8.764;2022-10-31T07:40:18;43.80;;;17.05;;
54919;SDS011;63804;53.120;8.764;2022-10-31T07:42:45;71.85;;;20.33;;
54919;SDS011;63804;53.120;8.764;2022-10-31T07:45:13;27.48;;;16.17;;
54919;SDS011;63804;53.120;8.764;2022-10-31T07:47:50;43.33;;;17.08;;
54919;SDS011;63804;53.120;8.764;2022-10-31T07:50:18;41.92;;;15.13;;
54919;SDS011;63804;53.120;8.764;2022-10-31T07:55:43;34.78;;;16.30;;
54919;SDS011;63804;53.120;8.764;2022-10-31T07:58:12;31.83;;;15.85;;
54919;SDS011;63804;53.120;8.764;2022-10-31T08:00:47;26.13;;;14.68;;
54919;SDS011;63804;53.120;8.764;2022-10-31T08:03:14;31.08;;;14.95;;
54919;SDS011;63804;53.120;8.764;2022-10-31T08:05:41;42.28;;;15.50;;
54919;SDS011;63804;53.120;8.764;2022-10-31T08:08:07;38.10;;;15.13;;
54919;SDS011;63804;53.120;8.764;2022-10-31T08:10:36;25.90;;;14.15;;
54919;SDS011;63804;53.120;8.764;2022-10-31T08:13:06;31.35;;;14.63;;
54919;SDS011;63804;53.120;8.764;2022-10-31T08:15:33;22.85;;;15.88;;
54919;SDS011;63804;53.120;8.764;2022-10-31T08:18:02;24.13;;;15.60;;
54919;SDS011;63804;53.120;8.764;2022-10-31T08:20:28;29.98;;;17.40;;
54919;SDS011;63804;53.120;8.764;2022-10-31T08:22:54;25.30;;;16.65;;
54919;SDS011;63804;53.120;8.764;2022-10-31T08:25:20;22.08;;;15.95;;
54919;SDS011;63804;53.120;8.764;2022-10-31T08:27:50;22.45;;;15.85;;
54919;SDS011;63804;53.120;8.764;2022-10-31T08:30:17;22.80;;;14.85;;
54919;SDS011;63804;53.120;8.764;2022-10-31T08:32:44;20.40;;;15.20;;
54919;SDS011;63804;53.120;8.764;2022-10-31T08:35:11;23.55;;;16.10;;
54919;SDS011;63804;53.120;8.764;2022-10-31T08:37:37;21.92;;;16.35;;
54919;SDS011;63804;53.120;8.764;2022-10-31T08:40:02;22.33;;;15.48;;
54919;SDS011;63804;53.120;8.764;2022-10-31T08:42:29;23.33;;;16.52;;
54919;SDS011;63804;53.120;8.764;2022-10-31T08:44:54;24.48;;;16.85;;
54919;SDS011;63804;53.120;8.764;2022-10-31T08:47:20;23.20;;;16.13;;
54919;SDS011;63804;53.120;8.764;2022-10-31T08:49:45;22.40;;;15.25;;
54919;SDS011;63804;53.120;8.764;2022-10-31T08:52:11;22.10;;;15.05;;
54919;SDS011;63804;53.120;8.764;2022-10-31T08:54:36;21.42;;;14.52;;
54919;SDS011;63804;53.120;8.764;2022-10-31T08:57:02;22.83;;;15.82;;
54919;SDS011;63804;53.120;8.764;2022-10-31T08:59:27;24.05;;;16.38;;
54919;SDS011;63804;53.120;8.764;2022-10-31T09:01:53;25.15;;;16.60;;
54919;SDS011;63804;53.120;8.764;2022-10-31T09:04:19;25.95;;;17.50;;
54919;SDS011;63804;53.120;8.764;2022-10-31T09:06:44;25.65;;;16.90;;
54919;SDS011;63804;53.120;8.764;2022-10-31T09:09:10;29.38;;;17.83;;
54919;SDS011;63804;53.120;8.764;2022-10-31T09:11:36;26.50;;;17.70;;
54919;SDS011;63804;53.120;8.764;2022-10-31T09:14:01;24.83;;;17.05;;
54919;SDS011;63804;53.120;8.764;2022-10-31T09:16:27;25.48;;;17.90;;
54919;SDS011;63804;53.120;8.764;2022-10-31T09:18:52;25.33;;;17.95;;
54919;SDS011;63804;53.120;8.764;2022-10-31T09:21:18;28.20;;;19.52;;
54919;SDS011;63804;53.120;8.764;2022-10-31T09:23:43;27.95;;;18.15;;
54919;SDS011;63804;53.120;8.764;2022-10-31T09:26:09;28.13;;;18.70;;
54919;SDS011;63804;53.120;8.764;2022-10-31T09:28:35;26.33;;;18.42;;
54919;SDS011;63804;53.120;8.764;2022-10-31T09:31:00;27.15;;;18.50;;
54919;SDS011;63804;53.120;8.764;2022-10-31T09:33:26;30.77;;;20.27;;
54919;SDS011;63804;53.120;8.764;2022-10-31T09:35:51;30.45;;;20.40;;
54919;SDS011;63804;53.120;8.764;2022-10-31T09:38:18;33.13;;;21.15;;
54919;SDS011;63804;53.120;8.764;2022-10-31T09:40:55;30.23;;;20.65;;
54919;SDS011;63804;53.120;8.764;2022-10-31T09:43:59;31.70;;;20.63;;
54919;SDS011;63804;53.120;8.764;2022-10-31T09:52:32;32.45;;;22.17;;
54919;SDS011;63804;53.120;8.764;2022-10-31T09:55:09;38.03;;;23.33;;
54919;SDS011;63804;53.120;8.764;2022-10-31T09:57:42;40.75;;;24.83;;
54919;SDS011;63804;53.120;8.764;2022-10-31T10:00:16;36.88;;;23.27;;
54919;SDS011;63804;53.120;8.764;2022-10-31T10:05:37;38.78;;;24.95;;
54919;SDS011;63804;53.120;8.764;2022-10-31T10:08:25;40.65;;;26.73;;
54919;SDS011;63804;53.120;8.764;2022-10-31T10:24:55;37.65;;;24.65;;
54919;SDS011;63804;53.120;8.764;2022-10-31T10:27:40;38.95;;;25.02;;
54919;SDS011;63804;53.120;8.764;2022-10-31T10:30:15;37.72;;;24.25;;
54919;SDS011;63804;53.120;8.764;2022-10-31T10:32:45;38.42;;;25.02;;
54919;SDS011;63804;53.120;8.764;2022-10-31T10:35:22;37.28;;;25.08;;
54919;SDS011;63804;53.120;8.764;2022-10-31T10:38:08;37.17;;;24.50;;
54919;SDS011;63804;53.120;8.764;2022-10-31T10:40:59;37.78;;;24.50;;
54919;SDS011;63804;53.120;8.764;2022-10-31T10:43:33;40.67;;;26.20;;
54919;SDS011;63804;53.120;8.764;2022-10-31T11:00:22;38.33;;;24.45;;
54919;SDS011;63804;53.120;8.764;2022-10-31T11:02:49;39.45;;;24.95;;
54919;SDS011;63804;53.120;8.764;2022-10-31T11:08:03;38.53;;;25.42;;
54919;SDS011;63804;53.120;8.764;2022-10-31T11:10:30;44.90;;;27.15;;
54919;SDS011;63804;53.120;8.764;2022-10-31T11:12:58;43.60;;;26.20;;
54919;SDS011;63804;53.120;8.764;2022-10-31T11:15:50;43.55;;;27.50;;
54919;SDS011;63804;53.120;8.764;2022-10-31T11:18:23;39.78;;;24.35;;
54919;SDS011;63804;53.120;8.764;2022-10-31T11:20:52;39.10;;;24.25;;
54919;SDS011;63804;53.120;8.764;2022-10-31T11:23:21;42.53;;;25.58;;
54919;SDS011;63804;53.120;8.764;2022-10-31T11:28:31;43.05;;;25.05;;
54919;SDS011;63804;53.120;8.764;2022-10-31T11:31:00;38.72;;;24.40;;
54919;SDS011;63804;53.120;8.764;2022-10-31T11:33:31;36.75;;;22.95;;
54919;SDS011;63804;53.120;8.764;2022-10-31T11:35:59;38.63;;;23.80;;
54919;SDS011;63804;53.120;8.764;2022-10-31T11:38:39;35.40;;;23.10;;
54919;SDS011;63804;53.120;8.764;2022-10-31T11:41:14;41.47;;;25.55;;
54919;SDS011;63804;53.120;8.764;2022-10-31T11:43:46;39.50;;;24.83;;
54919;SDS011;63804;53.120;8.764;2022-10-31T11:46:17;31.35;;;18.00;;
54919;SDS011;63804;53.120;8.764;2022-10-31T11:48:50;21.42;;;9.80;;
54919;SDS011;63804;53.120;8.764;2022-10-31T11:51:20;13.40;;;7.05;;
54919;SDS011;63804;53.120;8.764;2022-10-31T11:53:50;14.93;;;7.30;;
54919;SDS011;63804;53.120;8.764;2022-10-31T11:56:17;17.30;;;8.43;;
54919;SDS011;63804;53.120;8.764;2022-10-31T11:58:53;16.42;;;7.55;;
54919;SDS011;63804;53.120;8.764;2022-10-31T12:01:25;13.18;;;5.90;;
54919;SDS011;63804;53.120;8.764;2022-10-31T12:04:11;13.23;;;5.97;;
54919;SDS011;63804;53.120;8.764;2022-10-31T12:06:38;12.80;;;6.40;;
54919;SDS011;63804;53.120;8.764;2022-10-31T12:09:25;14.25;;;6.32;;
54919;SDS011;63804;53.120;8.764;2022-10-31T12:11:57;17.17;;;7.55;;
54919;SDS011;63804;53.120;8.764;2022-10-31T12:19:43;18.15;;;9.65;;
54919;SDS011;63804;53.120;8.764;2022-10-31T12:25:20;21.95;;;11.82;;
54919;SDS011;63804;53.120;8.764;2022-10-31T12:30:27;23.10;;;11.10;;
54919;SDS011;63804;53.120;8.764;2022-10-31T12:38:46;27.50;;;14.48;;
54919;SDS011;63804;53.120;8.764;2022-10-31T12:41:34;27.00;;;17.38;;
54919;SDS011;63804;53.120;8.764;2022-10-31T12:44:21;29.65;;;18.40;;
54919;SDS011;63804;53.120;8.764;2022-10-31T12:58:14;32.80;;;19.08;;
54919;SDS011;63804;53.120;8.764;2022-10-31T13:00:53;37.58;;;19.77;;
54919;SDS011;63804;53.120;8.764;2022-10-31T13:03:50;32.80;;;19.58;;
54919;SDS011;63804;53.120;8.764;2022-10-31T13:06:24;31.35;;;19.75;;
54919;SDS011;63804;53.120;8.764;2022-10-31T13:09:00;31.77;;;19.75;;
54919;SDS011;63804;53.120;8.764;2022-10-31T13:11:33;34.47;;;20.80;;
54919;SDS011;63804;53.120;8.764;2022-10-31T13:16:40;34.25;;;20.42;;
54919;SDS011;63804;53.120;8.764;2022-10-31T13:19:17;31.23;;;20.23;;
54919;SDS011;63804;53.120;8.764;2022-10-31T13:24:31;32.22;;;19.73;;
54919;SDS011;63804;53.120;8.764;2022-10-31T13:27:02;35.03;;;20.08;;
54919;SDS011;63804;53.120;8.764;2022-10-31T13:30:01;36.72;;;20.05;;
54919;SDS011;63804;53.120;8.764;2022-10-31T13:32:47;37.67;;;21.80;;
54919;SDS011;63804;53.120;8.764;2022-10-31T13:35:25;36.58;;;21.70;;
54919;SDS011;63804;53.120;8.764;2022-10-31T13:41:04;38.20;;;22.02;;
54919;SDS011;63804;53.120;8.764;2022-10-31T13:48:56;38.17;;;21.98;;
54919;SDS011;63804;53.120;8.764;2022-10-31T13:51:26;36.70;;;22.83;;
54919;SDS011;63804;53.120;8.764;2022-10-31T13:56:21;38.83;;;22.45;;
54919;SDS011;63804;53.120;8.764;2022-10-31T14:01:34;39.33;;;23.58;;
54919;SDS011;63804;53.120;8.764;2022-10-31T14:04:20;36.35;;;22.67;;
54919;SDS011;63804;53.120;8.764;2022-10-31T14:06:53;38.05;;;22.05;;
54919;SDS011;63804;53.120;8.764;2022-10-31T14:09:32;37.20;;;21.17;;
54919;SDS011;63804;53.120;8.764;2022-10-31T14:12:01;39.50;;;21.92;;
54919;SDS011;63804;53.120;8.764;2022-10-31T14:14:32;40.45;;;21.00;;
54919;SDS011;63804;53.120;8.764;2022-10-31T14:17:17;36.25;;;20.55;;
54919;SDS011;63804;53.120;8.764;2022-10-31T14:22:35;38.40;;;21.10;;
54919;SDS011;63804;53.120;8.764;2022-10-31T14:25:24;38.83;;;20.70;;
54919;SDS011;63804;53.120;8.764;2022-10-31T14:28:20;34.42;;;19.73;;
54919;SDS011;63804;53.120;8.764;2022-10-31T14:30:56;33.22;;;19.45;;
54919;SDS011;63804;53.120;8.764;2022-10-31T14:33:24;32.42;;;19.95;;
54919;SDS011;63804;53.120;8.764;2022-10-31T14:39:13;34.58;;;21.02;;
54919;SDS011;63804;53.120;8.764;2022-10-31T14:47:24;37.25;;;20.85;;
54919;SDS011;63804;53.120;8.764;2022-10-31T14:50:24;36.50;;;20.55;;
54919;SDS011;63804;53.120;8.764;2022-10-31T14:53:00;35.75;;;21.52;;
54919;SDS011;63804;53.120;8.764;2022-10-31T14:55:28;35.38;;;20.40;;
54919;SDS011;63804;53.120;8.764;2022-10-31T14:57:58;36.95;;;21.88;;
54919;SDS011;63804;53.120;8.764;2022-10-31T15:00:26;37.58;;;22.17;;
54919;SDS011;63804;53.120;8.764;2022-10-31T15:05:47;38.35;;;22.23;;
54919;SDS011;63804;53.120;8.764;2022-10-31T15:11:15;35.97;;;20.70;;
54919;SDS011;63804;53.120;8.764;2022-10-31T15:13:46;30.58;;;18.00;;
54919;SDS011;63804;53.120;8.764;2022-10-31T15:16:20;34.60;;;18.60;;
54919;SDS011;63804;53.120;8.764;2022-10-31T15:18:50;29.40;;;17.48;;
54919;SDS011;63804;53.120;8.764;2022-10-31T15:21:19;33.25;;;18.15;;
54919;SDS011;63804;53.120;8.764;2022-10-31T15:23:46;33.60;;;18.80;;
54919;SDS011;63804;53.120;8.764;2022-10-31T15:26:18;32.97;;;18.80;;
54919;SDS011;63804;53.120;8.764;2022-10-31T15:28:46;32.00;;;18.30;;
54919;SDS011;63804;53.120;8.764;2022-10-31T15:31:25;31.27;;;17.80;;
54919;SDS011;63804;53.120;8.764;2022-10-31T15:33:51;30.55;;;17.20;;
54919;SDS011;63804;53.120;8.764;2022-10-31T15:36:20;27.95;;;16.58;;
54919;SDS011;63804;53.120;8.764;2022-10-31T15:38:48;32.55;;;17.67;;
54919;SDS011;63804;53.120;8.764;2022-10-31T15:41:23;31.55;;;17.58;;
54919;SDS011;63804;53.120;8.764;2022-10-31T15:43:55;29.92;;;17.25;;
54919;SDS011;63804;53.120;8.764;2022-10-31T15:46:41;30.15;;;17.48;;
54919;SDS011;63804;53.120;8.764;2022-10-31T15:51:56;34.22;;;18.85;;
54919;SDS011;63804;53.120;8.764;2022-10-31T15:54:25;32.05;;;18.38;;
54919;SDS011;63804;53.120;8.764;2022-10-31T15:56:51;33.70;;;19.25;;
54919;SDS011;63804;53.120;8.764;2022-10-31T15:59:22;32.03;;;18.35;;
54919;SDS011;63804;53.120;8.764;2022-10-31T16:02:07;33.20;;;17.83;;
54919;SDS011;63804;53.120;8.764;2022-10-31T16:04:35;36.90;;;19.63;;
54919;SDS011;63804;53.120;8.764;2022-10-31T16:07:02;33.47;;;18.73;;
54919;SDS011;63804;53.120;8.764;2022-10-31T16:09:47;34.47;;;19.45;;
54919;SDS011;63804;53.120;8.764;2022-10-31T16:12:14;33.65;;;18.15;;
54919;SDS011;63804;53.120;8.764;2022-10-31T16:14:41;34.72;;;17.48;;
54919;SDS011;63804;53.120;8.764;2022-10-31T16:17:10;31.95;;;17.85;;
54919;SDS011;63804;53.120;8.764;2022-10-31T16:19:49;29.38;;;17.33;;
54919;SDS011;63804;53.120;8.764;2022-10-31T16:22:26;33.53;;;18.93;;
54919;SDS011;63804;53.120;8.764;2022-10-31T16:24:59;33.80;;;18.83;;
54919;SDS011;63804;53.120;8.764;2022-10-31T16:27:26;32.88;;;18.48;;
54919;SDS011;63804;53.120;8.764;2022-10-31T16:29:56;33.53;;;17.33;;
54919;SDS011;63804;53.120;8.764;2022-10-31T16:32:27;28.92;;;17.08;;
54919;SDS011;63804;53.120;8.764;2022-10-31T16:34:58;30.88;;;15.68;;
54919;SDS011;63804;53.120;8.764;2022-10-31T16:37:27;28.98;;;15.93;;
54919;SDS011;63804;53.120;8.764;2022-10-31T16:39:52;29.70;;;15.18;;
54919;SDS011;63804;53.120;8.764;2022-10-31T16:42:18;28.77;;;15.85;;
54919;SDS011;63804;53.120;8.764;2022-10-31T16:44:44;32.42;;;15.93;;
54919;SDS011;63804;53.120;8.764;2022-10-31T16:47:14;31.63;;;16.50;;
54919;SDS011;63804;53.120;8.764;2022-10-31T16:49:41;36.25;;;16.75;;
54919;SDS011;63804;53.120;8.764;2022-10-31T16:52:08;29.58;;;15.88;;
54919;SDS011;63804;53.120;8.764;2022-10-31T16:54:34;29.77;;;16.17;;
54919;SDS011;63804;53.120;8.764;2022-10-31T16:57:00;31.60;;;15.77;;
54919;SDS011;63804;53.120;8.764;2022-10-31T16:59:28;34.08;;;15.40;;